Time;durP1;ratioP1;P1;durP2;ratioP2;P2;SDS_P1;SDS_P2;PMS_P1;PMS_P2;Temp;Humidity;BMP_temperature;BMP_pressure;BME280_temperature;BME280_humidity;BME280_pressure;Samples;Min_cycle;Max_cycle;Signal;HPM_P1;HPM_P2
2023/04/29 00:02:06;;;;;;;125.63;53.43;;;;;;;;;;5050013;28;20045;-63
2023/04/29 00:04:33;;;;;;;149.20;56.87;;;;;;;;;;5049515;28;20076;-63
2023/04/29 00:06:59;;;;;;;152.77;59.37;;;;;;;;;;5049352;28;20045;-63
2023/04/29 00:09:25;;;;;;;147.90;58.67;;;;;;;;;;5048444;28;20495;-63
2023/04/29 00:11:51;;;;;;;122.53;51.60;;;;;;;;;;5049377;28;20049;-63
2023/04/29 00:14:17;;;;;;;130.83;54.70;;;;;;;;;;5049463;28;20495;-63
2023/04/29 00:16:43;;;;;;;137.63;55.27;;;;;;;;;;5050086;28;20870;-63
2023/04/29 00:19:10;;;;;;;118.70;53.00;;;;;;;;;;5059218;28;20036;-63
2023/04/29 00:21:36;;;;;;;110.63;52.73;;;;;;;;;;5067343;28;20629;-63
2023/04/29 00:24:02;;;;;;;124.43;52.43;;;;;;;;;;5061410;28;20046;-63
2023/04/29 00:26:28;;;;;;;135.70;54.87;;;;;;;;;;5049785;28;20052;-63
2023/04/29 00:28:54;;;;;;;132.87;57.13;;;;;;;;;;5047425;28;20052;-64
2023/04/29 00:31:20;;;;;;;129.73;54.70;;;;;;;;;;5048784;28;20044;-63
2023/04/29 00:33:46;;;;;;;93.93;47.13;;;;;;;;;;5048511;28;20040;-63
2023/04/29 00:36:12;;;;;;;120.77;52.90;;;;;;;;;;5052230;28;20043;-63
2023/04/29 00:38:38;;;;;;;129.10;54.70;;;;;;;;;;5053189;28;20160;-63
2023/04/29 00:41:04;;;;;;;98.83;47.90;;;;;;;;;;5047288;28;20692;-63
2023/04/29 00:43:30;;;;;;;110.83;49.73;;;;;;;;;;5048697;28;20135;-63
2023/04/29 00:45:57;;;;;;;95.17;45.60;;;;;;;;;;5048325;28;20499;-63
2023/04/29 00:48:22;;;;;;;103.33;46.90;;;;;;;;;;5047096;28;20052;-63
2023/04/29 00:50:50;;;;;;;95.00;47.30;;;;;;;;;;5047356;28;20068;-63
2023/04/29 00:53:16;;;;;;;108.57;50.90;;;;;;;;;;5052590;28;20044;-63
2023/04/29 00:55:43;;;;;;;87.07;44.13;;;;;;;;;;5067423;28;20055;-62
2023/04/29 00:58:10;;;;;;;104.53;46.53;;;;;;;;;;5067870;28;20133;-63
2023/04/29 01:00:37;;;;;;;91.63;45.03;;;;;;;;;;5050880;28;20098;-63
2023/04/29 01:03:04;;;;;;;102.53;47.10;;;;;;;;;;5047135;28;20045;-63
2023/04/29 01:05:30;;;;;;;97.87;46.73;;;;;;;;;;5047749;28;20126;-62
2023/04/29 01:08:16;;;;;;;98.83;46.30;;;;;;;;;;5047747;28;20453;-63
2023/04/29 01:10:44;;;;;;;103.27;47.60;;;;;;;;;;5047339;28;20056;-63
2023/04/29 01:13:17;;;;;;;103.50;46.87;;;;;;;;;;5048215;28;20114;-63
2023/04/29 01:16:05;;;;;;;95.00;44.93;;;;;;;;;;5048139;28;20106;-63
2023/04/29 01:18:38;;;;;;;94.47;43.87;;;;;;;;;;5049241;28;20049;-63
2023/04/29 01:21:05;;;;;;;99.35;44.65;;;;;;;;;;5067122;28;20068;-63
2023/04/29 01:23:31;;;;;;;90.93;44.37;;;;;;;;;;5067871;28;20143;-63
2023/04/29 01:25:57;;;;;;;101.83;46.43;;;;;;;;;;5068113;28;20048;-63
2023/04/29 01:28:27;;;;;;;112.93;47.30;;;;;;;;;;5010268;28;1073014;-63
2023/04/29 01:31:00;;;;;;;109.17;48.40;;;;;;;;;;5048902;28;20053;-63
2023/04/29 01:33:35;;;;;;;106.47;47.88;;;;;;;;;;5051703;28;20044;-63
2023/04/29 01:36:21;;;;;;;109.67;49.93;;;;;;;;;;5068512;28;20503;-62
2023/04/29 01:38:52;;;;;;;104.90;48.70;;;;;;;;;;5068574;28;20071;-63
2023/04/29 01:41:22;;;;;;;102.40;47.63;;;;;;;;;;5068551;28;20040;-63
2023/04/29 01:43:50;;;;;;;130.43;52.60;;;;;;;;;;5068373;28;20521;-63
2023/04/29 01:46:20;;;;;;;120.17;50.93;;;;;;;;;;5068580;28;20045;-62
2023/04/29 01:48:46;;;;;;;123.87;51.50;;;;;;;;;;5054867;28;20410;-63
2023/04/29 01:51:12;;;;;;;118.63;48.67;;;;;;;;;;5047845;28;20464;-63
2023/04/29 01:53:39;;;;;;;102.87;49.60;;;;;;;;;;5048685;28;20045;-63
2023/04/29 01:56:06;;;;;;;106.30;47.63;;;;;;;;;;5048200;28;20056;-62
2023/04/29 01:58:32;;;;;;;120.90;49.20;;;;;;;;;;5048217;28;20049;-63
2023/04/29 02:00:58;;;;;;;122.73;51.30;;;;;;;;;;5048528;28;20067;-63
2023/04/29 02:03:24;;;;;;;114.60;49.63;;;;;;;;;;5063634;28;20044;-62
2023/04/29 02:05:50;;;;;;;112.93;48.13;;;;;;;;;;5068787;28;20041;-62
2023/04/29 02:08:17;;;;;;;129.20;54.00;;;;;;;;;;5068612;28;20041;-64
2023/04/29 02:10:51;;;;;;;124.47;51.37;;;;;;;;;;5068205;28;20128;-63
2023/04/29 02:13:17;;;;;;;108.67;48.67;;;;;;;;;;5068089;28;20439;-62
2023/04/29 02:15:43;;;;;;;127.23;50.40;;;;;;;;;;5067978;28;20131;-62
2023/04/29 02:18:09;;;;;;;116.03;48.93;;;;;;;;;;5067403;28;20460;-62
2023/04/29 02:20:35;;;;;;;119.17;50.23;;;;;;;;;;5068081;28;20086;-62
2023/04/29 02:23:02;;;;;;;106.93;47.03;;;;;;;;;;5068087;28;20110;-62
2023/04/29 02:25:28;;;;;;;114.60;47.10;;;;;;;;;;5067388;28;20534;-63
2023/04/29 02:27:54;;;;;;;101.83;47.33;;;;;;;;;;5067116;28;20048;-62
2023/04/29 02:30:19;;;;;;;95.27;43.83;;;;;;;;;;5063001;28;20053;-62
2023/04/29 02:32:45;;;;;;;90.87;41.03;;;;;;;;;;5051671;28;20049;-62
2023/04/29 02:35:11;;;;;;;101.83;45.93;;;;;;;;;;5050551;28;20087;-62
2023/04/29 02:37:38;;;;;;;78.67;38.80;;;;;;;;;;5051731;28;20040;-62
2023/04/29 02:40:04;;;;;;;86.03;41.33;;;;;;;;;;5051446;28;20067;-62
2023/04/29 02:42:31;;;;;;;88.60;39.80;;;;;;;;;;5050154;28;20086;-62
2023/04/29 02:44:57;;;;;;;93.50;43.10;;;;;;;;;;5063184;28;20045;-62
2023/04/29 02:47:23;;;;;;;94.00;41.20;;;;;;;;;;5071343;28;20473;-62
2023/04/29 02:49:49;;;;;;;82.30;40.37;;;;;;;;;;5071228;28;20056;-62
2023/04/29 02:52:16;;;;;;;102.53;44.80;;;;;;;;;;5070903;28;20040;-62
2023/04/29 02:54:42;;;;;;;95.57;44.73;;;;;;;;;;5071215;28;20127;-62
2023/04/29 02:57:08;;;;;;;90.37;42.57;;;;;;;;;;5071212;28;20975;-62
2023/04/29 02:59:34;;;;;;;94.23;43.50;;;;;;;;;;5058664;28;20092;-62
2023/04/29 03:02:01;;;;;;;95.77;42.30;;;;;;;;;;5050631;28;20053;-62
2023/04/29 03:04:27;;;;;;;86.23;41.43;;;;;;;;;;5050925;28;20740;-62
2023/04/29 03:06:56;;;;;;;87.37;40.63;;;;;;;;;;5052717;28;20488;-63
2023/04/29 03:09:23;;;;;;;97.03;43.20;;;;;;;;;;5071064;28;20048;-61
2023/04/29 03:11:49;;;;;;;101.50;42.90;;;;;;;;;;5071041;28;20051;-62
2023/04/29 03:14:15;;;;;;;84.10;39.67;;;;;;;;;;5070592;28;20560;-63
2023/04/29 03:16:41;;;;;;;81.97;39.03;;;;;;;;;;5070784;28;20128;-62
2023/04/29 03:19:08;;;;;;;90.60;40.00;;;;;;;;;;5070797;28;20048;-62
2023/04/29 03:21:34;;;;;;;97.07;39.90;;;;;;;;;;5052389;28;20077;-62
2023/04/29 03:24:00;;;;;;;84.10;39.07;;;;;;;;;;5050156;28;20484;-62
2023/04/29 03:26:26;;;;;;;94.93;41.17;;;;;;;;;;5050424;28;20160;-62
2023/04/29 03:28:52;;;;;;;84.17;40.83;;;;;;;;;;5050762;28;20118;-62
2023/04/29 03:31:20;;;;;;;91.30;40.20;;;;;;;;;;5050166;28;20041;-62
2023/04/29 03:33:46;;;;;;;110.33;42.97;;;;;;;;;;5050356;28;20111;-62
2023/04/29 03:36:12;;;;;;;89.40;40.03;;;;;;;;;;5067777;28;20048;-62
2023/04/29 03:38:38;;;;;;;96.20;41.80;;;;;;;;;;5070369;28;20841;-62
2023/04/29 03:41:04;;;;;;;85.73;37.30;;;;;;;;;;5067650;28;20075;-62
2023/04/29 03:43:31;;;;;;;86.73;40.13;;;;;;;;;;5070502;28;20123;-62
2023/04/29 03:45:57;;;;;;;87.10;38.27;;;;;;;;;;5070121;28;20044;-63
2023/04/29 03:48:23;;;;;;;70.93;35.93;;;;;;;;;;5069601;28;20044;-62
2023/04/29 03:50:49;;;;;;;76.67;36.80;;;;;;;;;;5070069;28;20040;-62
2023/04/29 03:53:16;;;;;;;64.73;34.97;;;;;;;;;;5069946;28;20406;-62
2023/04/29 03:55:42;;;;;;;77.97;37.10;;;;;;;;;;5069917;28;20411;-61
2023/04/29 03:58:08;;;;;;;90.03;40.37;;;;;;;;;;5069696;28;20186;-62
2023/04/29 04:00:34;;;;;;;82.13;40.23;;;;;;;;;;5069707;28;20079;-62
2023/04/29 04:03:00;;;;;;;70.87;36.60;;;;;;;;;;5068168;28;20605;-62
2023/04/29 04:05:26;;;;;;;98.77;40.23;;;;;;;;;;5050034;28;20094;-62
2023/04/29 04:07:52;;;;;;;79.47;39.03;;;;;;;;;;5049583;28;20124;-62
2023/04/29 04:10:19;;;;;;;92.67;38.43;;;;;;;;;;5049731;28;20056;-62
2023/04/29 04:12:46;;;;;;;92.37;39.63;;;;;;;;;;5049839;28;20052;-62
2023/04/29 04:15:12;;;;;;;83.60;37.27;;;;;;;;;;5049671;28;20060;-62
2023/04/29 04:17:38;;;;;;;83.83;38.43;;;;;;;;;;5054437;28;20508;-62
2023/04/29 04:20:05;;;;;;;93.17;40.50;;;;;;;;;;5069349;28;20045;-62
2023/04/29 04:22:31;;;;;;;85.30;39.47;;;;;;;;;;5069757;28;20048;-62
2023/04/29 04:24:57;;;;;;;100.60;40.67;;;;;;;;;;5069574;28;20522;-62
2023/04/29 04:27:23;;;;;;;96.33;40.87;;;;;;;;;;5050405;28;20053;-62
2023/04/29 04:29:53;;;;;;;98.57;40.63;;;;;;;;;;5049194;28;20060;-62
2023/04/29 04:32:19;;;;;;;94.33;40.67;;;;;;;;;;5056994;28;20060;-62
2023/04/29 04:34:45;;;;;;;99.40;39.33;;;;;;;;;;5069212;28;20109;-62
2023/04/29 04:37:11;;;;;;;84.03;37.33;;;;;;;;;;5069171;28;20056;-62
2023/04/29 04:39:38;;;;;;;85.37;37.63;;;;;;;;;;5068606;28;20053;-62
2023/04/29 04:42:04;;;;;;;94.07;38.73;;;;;;;;;;5066691;28;20418;-62
2023/04/29 04:44:30;;;;;;;95.13;41.10;;;;;;;;;;5048981;28;20037;-62
2023/04/29 04:46:57;;;;;;;78.97;37.47;;;;;;;;;;5058245;28;20555;-62
2023/04/29 04:49:26;;;;;;;100.97;39.40;;;;;;;;;;5069014;28;20054;-62
2023/04/29 04:51:52;;;;;;;80.23;35.13;;;;;;;;;;5068041;28;20048;-62
2023/04/29 04:54:18;;;;;;;79.40;34.87;;;;;;;;;;5068834;28;20044;-62
2023/04/29 04:56:45;;;;;;;82.03;35.30;;;;;;;;;;5068747;28;20683;-62
2023/04/29 04:59:11;;;;;;;79.97;35.43;;;;;;;;;;5056807;28;20041;-63
2023/04/29 05:01:37;;;;;;;87.43;36.43;;;;;;;;;;5058232;28;20056;-61
2023/04/29 05:04:03;;;;;;;75.50;34.57;;;;;;;;;;5068768;28;20509;-62
2023/04/29 05:06:29;;;;;;;68.40;32.17;;;;;;;;;;5067944;28;20041;-63
2023/04/29 05:08:55;;;;;;;68.30;31.53;;;;;;;;;;5068271;28;20494;-63
2023/04/29 05:11:21;;;;;;;71.87;32.10;;;;;;;;;;5068909;28;20533;-63
2023/04/29 05:13:48;;;;;;;71.70;32.47;;;;;;;;;;5068094;28;20498;-63
2023/04/29 05:16:16;;;;;;;72.93;30.77;;;;;;;;;;5063103;28;20051;-63
2023/04/29 05:18:44;;;;;;;76.87;30.73;;;;;;;;;;5068054;28;20041;-63
2023/04/29 05:21:10;;;;;;;60.43;27.57;;;;;;;;;;5068376;28;20106;-63
2023/04/29 05:23:36;;;;;;;73.53;31.30;;;;;;;;;;5068491;28;20052;-63
2023/04/29 05:26:02;;;;;;;71.90;31.53;;;;;;;;;;5059928;28;20045;-63
2023/04/29 05:28:28;;;;;;;66.90;29.37;;;;;;;;;;5048326;28;20049;-64
2023/04/29 05:30:54;;;;;;;66.10;29.53;;;;;;;;;;5047885;28;20119;-61
2023/04/29 05:33:21;;;;;;;69.13;30.07;;;;;;;;;;5048622;28;20045;-62
2023/04/29 05:35:47;;;;;;;75.37;30.93;;;;;;;;;;5048255;28;20067;-60
2023/04/29 05:38:13;;;;;;;49.20;27.30;;;;;;;;;;5048308;28;20037;-62
2023/04/29 05:40:39;;;;;;;68.93;29.93;;;;;;;;;;5048309;28;20051;-62
2023/04/29 05:43:06;;;;;;;63.20;28.30;;;;;;;;;;5047854;28;20056;-62
2023/04/29 05:45:32;;;;;;;60.80;26.43;;;;;;;;;;5066069;28;20052;-62
2023/04/29 05:47:58;;;;;;;62.63;27.40;;;;;;;;;;5067521;28;20040;-62
2023/04/29 05:50:24;;;;;;;55.47;26.07;;;;;;;;;;5068291;28;20391;-62
2023/04/29 05:52:50;;;;;;;59.07;27.57;;;;;;;;;;5068391;28;20049;-62
2023/04/29 05:55:16;;;;;;;56.00;26.83;;;;;;;;;;5068341;28;20056;-63
2023/04/29 05:57:42;;;;;;;52.07;24.33;;;;;;;;;;5068190;28;20050;-62
2023/04/29 06:00:09;;;;;;;55.10;23.50;;;;;;;;;;5068117;28;20040;-62
2023/04/29 06:02:35;;;;;;;51.37;25.17;;;;;;;;;;5068113;28;20464;-62
2023/04/29 06:05:01;;;;;;;44.00;22.27;;;;;;;;;;5058870;28;20462;-62
2023/04/29 06:07:27;;;;;;;44.33;22.20;;;;;;;;;;5068628;28;20052;-62
2023/04/29 06:09:53;;;;;;;44.90;21.53;;;;;;;;;;5064902;28;20363;-63
2023/04/29 06:12:20;;;;;;;48.83;21.93;;;;;;;;;;5056403;28;20045;-63
2023/04/29 06:14:46;;;;;;;43.17;21.13;;;;;;;;;;5059901;28;20041;-62
2023/04/29 06:17:12;;;;;;;45.93;22.33;;;;;;;;;;5060776;28;20096;-62
2023/04/29 06:19:38;;;;;;;58.53;22.90;;;;;;;;;;5061061;28;20152;-61
2023/04/29 06:22:04;;;;;;;39.33;20.53;;;;;;;;;;5059167;28;20049;-60
2023/04/29 06:24:30;;;;;;;42.27;18.80;;;;;;;;;;5060845;28;20045;-61
2023/04/29 06:26:59;;;;;;;47.90;22.77;;;;;;;;;;5060047;28;20055;-61
2023/04/29 06:29:25;;;;;;;34.60;18.93;;;;;;;;;;5059111;28;20059;-62
2023/04/29 06:31:52;;;;;;;43.17;19.80;;;;;;;;;;5064219;28;20199;-62
2023/04/29 06:34:19;;;;;;;35.17;18.83;;;;;;;;;;5062899;28;20051;-62
2023/04/29 06:36:45;;;;;;;39.53;19.50;;;;;;;;;;5071916;28;20109;-63
2023/04/29 06:39:11;;;;;;;36.80;18.30;;;;;;;;;;5053650;28;20056;-62
2023/04/29 06:41:37;;;;;;;27.30;17.53;;;;;;;;;;5051690;28;20049;-63
2023/04/29 06:44:03;;;;;;;30.73;17.07;;;;;;;;;;5053905;28;20071;-62
2023/04/29 06:46:29;;;;;;;38.93;18.40;;;;;;;;;;5072702;28;20036;-62
2023/04/29 06:48:56;;;;;;;30.07;16.87;;;;;;;;;;5066507;28;20452;-62
2023/04/29 06:51:22;;;;;;;29.83;16.77;;;;;;;;;;5068614;28;20502;-62
2023/04/29 06:53:48;;;;;;;28.03;15.90;;;;;;;;;;5070950;28;20063;-62
2023/04/29 06:56:14;;;;;;;29.57;15.60;;;;;;;;;;5056709;28;20430;-62
2023/04/29 06:58:40;;;;;;;27.73;17.23;;;;;;;;;;5069621;28;20049;-62
2023/04/29 07:01:07;;;;;;;24.57;16.50;;;;;;;;;;5067901;28;20048;-62
2023/04/29 07:03:33;;;;;;;24.57;15.47;;;;;;;;;;5067939;28;20048;-62
2023/04/29 07:05:59;;;;;;;18.47;12.63;;;;;;;;;;5062829;28;20040;-62
2023/04/29 07:08:27;;;;;;;22.30;12.87;;;;;;;;;;5053126;28;20044;-62
2023/04/29 07:10:57;;;;;;;18.97;11.63;;;;;;;;;;5050486;28;20142;-62
2023/04/29 07:13:23;;;;;;;26.00;12.30;;;;;;;;;;5050948;28;20037;-62
2023/04/29 07:15:49;;;;;;;22.97;12.03;;;;;;;;;;5050368;28;20073;-62
2023/04/29 07:18:15;;;;;;;19.20;11.37;;;;;;;;;;5050421;28;20048;-61
2023/04/29 07:20:42;;;;;;;26.63;13.17;;;;;;;;;;5050710;28;20198;-62
2023/04/29 07:23:08;;;;;;;21.70;12.83;;;;;;;;;;5050142;28;20059;-62
2023/04/29 07:25:34;;;;;;;17.00;11.67;;;;;;;;;;5050828;28;20052;-62
2023/04/29 07:28:01;;;;;;;16.70;11.57;;;;;;;;;;5054208;28;20045;-61
2023/04/29 07:30:27;;;;;;;21.20;11.07;;;;;;;;;;5070235;28;20072;-61
2023/04/29 07:32:53;;;;;;;18.73;12.50;;;;;;;;;;5070177;28;20514;-61
2023/04/29 07:35:19;;;;;;;20.63;11.83;;;;;;;;;;5058990;28;20135;-61
2023/04/29 07:37:45;;;;;;;19.07;10.63;;;;;;;;;;5068248;28;20383;-61
2023/04/29 07:40:12;;;;;;;16.03;9.77;;;;;;;;;;5053160;28;20075;-61
2023/04/29 07:42:38;;;;;;;16.63;11.13;;;;;;;;;;5050392;28;20049;-61
2023/04/29 07:45:04;;;;;;;18.23;10.00;;;;;;;;;;5049978;28;20044;-61
2023/04/29 07:47:30;;;;;;;17.30;11.30;;;;;;;;;;5049951;28;20387;-61
2023/04/29 07:49:56;;;;;;;17.23;11.37;;;;;;;;;;5049958;28;20048;-61
2023/04/29 07:52:23;;;;;;;15.80;10.50;;;;;;;;;;5050392;28;20049;-61
2023/04/29 07:54:49;;;;;;;20.03;12.27;;;;;;;;;;5049556;28;20056;-60
2023/04/29 07:57:15;;;;;;;19.40;11.70;;;;;;;;;;5049866;28;20046;-61
2023/04/29 07:59:41;;;;;;;19.87;11.70;;;;;;;;;;5049128;28;20136;-61
2023/04/29 08:02:07;;;;;;;14.80;10.87;;;;;;;;;;5050628;28;20049;-61
2023/04/29 08:04:33;;;;;;;14.77;10.33;;;;;;;;;;5049776;28;20041;-61
2023/04/29 08:06:59;;;;;;;16.50;9.13;;;;;;;;;;5059170;28;20044;-61
2023/04/29 08:09:25;;;;;;;16.20;9.43;;;;;;;;;;5054840;28;20071;-61
2023/04/29 08:11:51;;;;;;;13.83;9.00;;;;;;;;;;5049565;28;20044;-60
2023/04/29 08:14:18;;;;;;;13.27;7.90;;;;;;;;;;5068253;28;20049;-61
2023/04/29 08:16:44;;;;;;;12.63;8.67;;;;;;;;;;5068951;28;20857;-61
2023/04/29 08:19:10;;;;;;;13.23;7.50;;;;;;;;;;5069178;28;20044;-61
2023/04/29 08:21:36;;;;;;;21.07;8.83;;;;;;;;;;5055228;28;20049;-61
2023/04/29 08:24:02;;;;;;;12.60;8.53;;;;;;;;;;5067373;28;20819;-61
2023/04/29 08:26:29;;;;;;;12.70;8.37;;;;;;;;;;5067202;28;20036;-61
2023/04/29 08:28:55;;;;;;;12.90;7.53;;;;;;;;;;5054085;28;20098;-60
2023/04/29 08:31:21;;;;;;;13.43;7.57;;;;;;;;;;5049467;28;20064;-61
2023/04/29 08:33:48;;;;;;;10.90;7.30;;;;;;;;;;5055271;28;20124;-61
2023/04/29 08:36:14;;;;;;;14.63;7.73;;;;;;;;;;5060278;28;20036;-61
2023/04/29 08:38:40;;;;;;;12.80;7.53;;;;;;;;;;5069187;28;20045;-61
2023/04/29 08:41:10;;;;;;;12.47;7.70;;;;;;;;;;5065009;28;20148;-61
2023/04/29 08:43:36;;;;;;;10.47;7.23;;;;;;;;;;5054520;28;20124;-60
2023/04/29 08:46:03;;;;;;;11.10;6.93;;;;;;;;;;5062519;28;20398;-61
2023/04/29 08:48:30;;;;;;;12.00;8.20;;;;;;;;;;5049835;28;20044;-61
2023/04/29 08:51:01;;;;;;;11.80;6.87;;;;;;;;;;5066146;28;20040;-61
2023/04/29 08:53:27;;;;;;;8.97;6.07;;;;;;;;;;5066847;28;20430;-61
2023/04/29 08:55:54;;;;;;;14.00;7.53;;;;;;;;;;5067418;28;20511;-60
2023/04/29 08:58:20;;;;;;;10.67;6.53;;;;;;;;;;5067817;28;20102;-60
2023/04/29 09:00:47;;;;;;;9.40;6.00;;;;;;;;;;5067210;28;20392;-64
2023/04/29 09:03:16;;;;;;;10.10;5.90;;;;;;;;;;5068948;28;20052;-60
2023/04/29 09:05:42;;;;;;;10.50;6.20;;;;;;;;;;5068411;28;20106;-61
2023/04/29 09:08:11;;;;;;;10.83;6.60;;;;;;;;;;5068302;28;20044;-60
2023/04/29 09:10:37;;;;;;;13.30;7.10;;;;;;;;;;5066254;28;20558;-61
2023/04/29 09:13:03;;;;;;;8.90;6.50;;;;;;;;;;5066940;28;20044;-61
2023/04/29 09:15:29;;;;;;;8.90;5.37;;;;;;;;;;5068541;28;20052;-61
2023/04/29 09:17:56;;;;;;;8.07;5.60;;;;;;;;;;5066800;28;20044;-61
2023/04/29 09:20:22;;;;;;;11.87;6.47;;;;;;;;;;5067129;28;20503;-59
2023/04/29 09:22:58;;;;;;;7.50;5.43;;;;;;;;;;5066913;28;20040;-61
2023/04/29 09:25:26;;;;;;;9.00;6.10;;;;;;;;;;5068573;28;20560;-60
2023/04/29 09:27:52;;;;;;;8.57;5.83;;;;;;;;;;5062670;28;20057;-61
2023/04/29 09:30:18;;;;;;;10.47;5.87;;;;;;;;;;5053296;28;20055;-63
2023/04/29 09:32:46;;;;;;;8.80;5.27;;;;;;;;;;5068486;28;20059;-59
2023/04/29 09:35:25;;;;;;;8.67;5.73;;;;;;;;;;5054604;28;20057;-60
2023/04/29 09:37:54;;;;;;;9.33;5.47;;;;;;;;;;5064585;28;20586;-60
2023/04/29 09:40:34;;;;;;;7.77;4.87;;;;;;;;;;5071991;28;20055;-62
2023/04/29 09:43:01;;;;;;;10.97;5.57;;;;;;;;;;5055904;28;20048;-60
2023/04/29 09:45:37;;;;;;;9.67;6.13;;;;;;;;;;5062341;28;20046;-62
2023/04/29 09:48:03;;;;;;;8.77;5.37;;;;;;;;;;5070573;28;20055;-61
2023/04/29 09:50:31;;;;;;;8.80;5.50;;;;;;;;;;5071883;28;20059;-60
2023/04/29 09:52:57;;;;;;;7.67;4.97;;;;;;;;;;5069459;28;20049;-61
2023/04/29 09:55:23;;;;;;;9.63;4.73;;;;;;;;;;5051596;28;20442;-60
2023/04/29 09:57:49;;;;;;;10.77;4.90;;;;;;;;;;5051880;28;20048;-61
2023/04/29 10:00:16;;;;;;;5.83;4.30;;;;;;;;;;5052389;28;20388;-61
2023/04/29 10:02:42;;;;;;;7.43;5.07;;;;;;;;;;5051113;28;20095;-61
2023/04/29 10:05:09;;;;;;;7.87;4.83;;;;;;;;;;5053706;28;20047;-61
2023/04/29 10:07:38;;;;;;;7.43;4.57;;;;;;;;;;5052465;28;20045;-61
2023/04/29 10:10:06;;;;;;;12.13;5.50;;;;;;;;;;5052353;28;20041;-60
2023/04/29 10:12:34;;;;;;;9.83;5.23;;;;;;;;;;5051671;28;20046;-60
2023/04/29 10:15:07;;;;;;;11.67;5.30;;;;;;;;;;5052371;28;20440;-61
2023/04/29 10:17:38;;;;;;;9.40;4.55;;;;;;;;;;5056177;28;20037;-60
2023/04/29 10:20:05;;;;;;;7.07;5.00;;;;;;;;;;5061413;28;20097;-60
2023/04/29 10:22:47;;;;;;;10.07;5.27;;;;;;;;;;5061774;28;20550;-60
2023/04/29 10:25:20;;;;;;;8.60;4.70;;;;;;;;;;5060201;28;20074;-60
2023/04/29 10:27:47;;;;;;;8.57;4.85;;;;;;;;;;5059200;28;20195;-60
2023/04/29 10:30:15;;;;;;;8.33;4.70;;;;;;;;;;5058826;28;20057;-60
2023/04/29 10:32:42;;;;;;;10.73;4.80;;;;;;;;;;5057789;28;20041;-60
2023/04/29 10:35:13;;;;;;;10.97;4.60;;;;;;;;;;5059104;28;20495;-60
2023/04/29 10:37:39;;;;;;;6.80;4.13;;;;;;;;;;5071542;28;20079;-59
2023/04/29 10:40:17;;;;;;;8.03;4.10;;;;;;;;;;5070962;28;20058;-60
2023/04/29 10:42:46;;;;;;;7.47;3.53;;;;;;;;;;5065195;28;20090;-61
2023/04/29 10:45:18;;;;;;;6.37;3.53;;;;;;;;;;5061334;28;20040;-61
2023/04/29 10:48:07;;;;;;;11.35;4.75;;;;;;;;;;5065430;28;20066;-61
2023/04/29 10:50:33;;;;;;;6.30;4.20;;;;;;;;;;5064835;28;20060;-61
2023/04/29 10:53:02;;;;;;;9.20;5.03;;;;;;;;;;5060659;28;20053;-61
2023/04/29 10:55:29;;;;;;;8.67;4.87;;;;;;;;;;5051944;28;20041;-61
2023/04/29 10:57:56;;;;;;;5.43;3.90;;;;;;;;;;5052672;28;20214;-61
2023/04/29 11:00:23;;;;;;;7.77;4.40;;;;;;;;;;5052535;28;20049;-61
2023/04/29 11:02:49;;;;;;;7.50;4.80;;;;;;;;;;5052165;28;20044;-60
2023/04/29 11:05:17;;;;;;;6.10;4.37;;;;;;;;;;5058314;28;20163;-61
2023/04/29 11:07:45;;;;;;;13.50;3.93;;;;;;;;;;5055254;28;20044;-60
2023/04/29 11:10:12;;;;;;;7.40;4.37;;;;;;;;;;5054094;28;20048;-60
2023/04/29 11:12:38;;;;;;;9.13;4.30;;;;;;;;;;5058359;28;20538;-61
2023/04/29 11:15:09;;;;;;;12.47;4.63;;;;;;;;;;5058512;28;20044;-61
2023/04/29 11:17:36;;;;;;;6.87;3.63;;;;;;;;;;5060038;28;20041;-59
2023/04/29 11:20:02;;;;;;;7.47;3.75;;;;;;;;;;5056316;28;20045;-60
2023/04/29 11:22:30;;;;;;;5.88;3.67;;;;;;;;;;5059236;28;20571;-60
2023/04/29 11:25:01;;;;;;;6.90;3.80;;;;;;;;;;5059094;28;20105;-60
2023/04/29 11:27:33;;;;;;;7.43;4.10;;;;;;;;;;5058727;28;20040;-60
2023/04/29 11:29:59;;;;;;;10.73;3.88;;;;;;;;;;5063468;28;20076;-60
2023/04/29 11:32:30;;;;;;;8.98;4.20;;;;;;;;;;5070584;28;20044;-60
2023/04/29 11:35:15;;;;;;;8.25;3.92;;;;;;;;;;5069030;28;20050;-61
2023/04/29 11:37:42;;;;;;;8.13;3.95;;;;;;;;;;5069422;28;20507;-60
2023/04/29 11:40:08;;;;;;;4.88;3.67;;;;;;;;;;5069824;28;20205;-60
2023/04/29 11:42:35;;;;;;;6.55;4.50;;;;;;;;;;5066052;28;20036;-60
2023/04/29 11:45:02;;;;;;;6.82;4.03;;;;;;;;;;5069168;28;20261;-60
2023/04/29 11:47:29;;;;;;;5.05;3.58;;;;;;;;;;5065887;28;20778;-60
2023/04/29 11:50:09;;;;;;;5.72;3.05;;;;;;;;;;5067422;28;20068;-60
2023/04/29 11:52:36;;;;;;;7.28;3.65;;;;;;;;;;5052284;28;20099;-60
2023/04/29 11:55:02;;;;;;;6.22;3.78;;;;;;;;;;5057365;28;20055;-60
2023/04/29 11:57:28;;;;;;;8.50;3.65;;;;;;;;;;5059810;28;20040;-60
2023/04/29 11:59:54;;;;;;;8.93;3.85;;;;;;;;;;5062193;28;20044;-60
2023/04/29 12:02:33;;;;;;;4.60;3.30;;;;;;;;;;5056252;28;20058;-61
2023/04/29 12:05:00;;;;;;;7.38;3.70;;;;;;;;;;5066391;28;20041;-61
2023/04/29 12:07:27;;;;;;;5.93;3.33;;;;;;;;;;5057503;28;20632;-61
2023/04/29 12:09:56;;;;;;;6.18;3.70;;;;;;;;;;5057462;28;20037;-61
2023/04/29 12:12:22;;;;;;;4.70;3.53;;;;;;;;;;5059693;28;20048;-61
2023/04/29 12:14:49;;;;;;;7.20;3.67;;;;;;;;;;5059446;28;20047;-62
2023/04/29 12:17:16;;;;;;;6.38;3.47;;;;;;;;;;5057790;28;20037;-61
2023/04/29 12:19:42;;;;;;;6.20;3.95;;;;;;;;;;5057018;28;20056;-62
2023/04/29 12:22:09;;;;;;;5.65;3.53;;;;;;;;;;5056926;28;20037;-62
2023/04/29 12:24:39;;;;;;;6.22;3.22;;;;;;;;;;5058510;28;20036;-62
2023/04/29 12:27:09;;;;;;;5.43;3.20;;;;;;;;;;5054450;28;20051;-62
2023/04/29 12:29:35;;;;;;;7.85;3.67;;;;;;;;;;5058351;28;20135;-61
2023/04/29 12:32:01;;;;;;;6.78;3.22;;;;;;;;;;5054116;28;20057;-61
2023/04/29 12:34:28;;;;;;;4.10;2.95;;;;;;;;;;5058357;28;20037;-61
2023/04/29 12:37:01;;;;;;;4.88;2.78;;;;;;;;;;5059537;28;20418;-62
2023/04/29 12:39:27;;;;;;;4.22;2.80;;;;;;;;;;5057808;28;20110;-61
2023/04/29 12:42:01;;;;;;;5.80;2.55;;;;;;;;;;5058125;28;20052;-62
2023/04/29 12:44:35;;;;;;;4.05;2.47;;;;;;;;;;5058006;28;20056;-61
2023/04/29 12:47:09;;;;;;;5.93;2.25;;;;;;;;;;5057044;28;20045;-62
2023/04/29 12:49:36;;;;;;;4.50;2.45;;;;;;;;;;5058414;28;20045;-62
2023/04/29 12:52:03;;;;;;;4.82;2.55;;;;;;;;;;5059262;28;20056;-61
2023/04/29 12:54:29;;;;;;;4.30;2.60;;;;;;;;;;5060393;28;20466;-61
2023/04/29 12:56:56;;;;;;;4.70;2.50;;;;;;;;;;5057538;28;20033;-61
2023/04/29 12:59:22;;;;;;;6.13;2.95;;;;;;;;;;5056886;28;20114;-61
2023/04/29 13:01:48;;;;;;;5.40;2.58;;;;;;;;;;5056860;28;20072;-62
2023/04/29 13:04:14;;;;;;;5.78;2.72;;;;;;;;;;5060146;28;20052;-62
2023/04/29 13:06:41;;;;;;;5.65;3.00;;;;;;;;;;5059975;28;20106;-61
2023/04/29 13:09:11;;;;;;;6.20;2.70;;;;;;;;;;5054843;28;20491;-62
2023/04/29 13:11:38;;;;;;;7.18;3.08;;;;;;;;;;5056899;28;20078;-61
2023/04/29 13:14:05;;;;;;;6.38;2.95;;;;;;;;;;5059829;28;20029;-61
2023/04/29 13:16:32;;;;;;;5.32;3.08;;;;;;;;;;5058461;28;20559;-61
2023/04/29 13:18:58;;;;;;;6.28;2.42;;;;;;;;;;5060044;28;20090;-61
2023/04/29 13:21:24;;;;;;;5.90;2.60;;;;;;;;;;5068545;28;20040;-60
2023/04/29 13:23:50;;;;;;;5.55;3.00;;;;;;;;;;5067935;28;20044;-60
2023/04/29 13:26:17;;;;;;;5.40;2.88;;;;;;;;;;5069017;28;20413;-61
2023/04/29 13:28:43;;;;;;;7.78;2.58;;;;;;;;;;5067153;28;20132;-60
2023/04/29 13:31:09;;;;;;;3.60;2.40;;;;;;;;;;5060866;28;20048;-60
2023/04/29 13:33:36;;;;;;;5.15;2.90;;;;;;;;;;5061973;28;20040;-60
2023/04/29 13:36:02;;;;;;;4.65;2.30;;;;;;;;;;5065133;28;20094;-60
2023/04/29 13:38:28;;;;;;;6.30;2.40;;;;;;;;;;5066801;28;20839;-61
2023/04/29 13:40:55;;;;;;;5.40;2.60;;;;;;;;;;5062683;28;20053;-62
2023/04/29 13:43:21;;;;;;;4.80;2.45;;;;;;;;;;5057868;28;20041;-61
2023/04/29 13:45:47;;;;;;;5.13;2.05;;;;;;;;;;5056364;28;20384;-61
2023/04/29 13:48:13;;;;;;;5.93;2.42;;;;;;;;;;5055115;28;20059;-61
2023/04/29 13:50:44;;;;;;;3.83;2.38;;;;;;;;;;5057081;28;20128;-61
2023/04/29 13:53:10;;;;;;;3.85;2.03;;;;;;;;;;5056521;28;20778;-61
2023/04/29 13:55:36;;;;;;;7.38;2.00;;;;;;;;;;5057891;28;20041;-61
2023/04/29 13:58:02;;;;;;;5.97;2.25;;;;;;;;;;5054987;28;20048;-61
2023/04/29 14:00:28;;;;;;;4.78;2.58;;;;;;;;;;5057642;28;20050;-61
2023/04/29 14:02:54;;;;;;;4.97;2.38;;;;;;;;;;5066602;28;20159;-62
2023/04/29 14:05:21;;;;;;;6.35;2.05;;;;;;;;;;5066913;28;20056;-61
2023/04/29 14:07:47;;;;;;;6.75;2.00;;;;;;;;;;5067322;28;20131;-61
2023/04/29 14:10:13;;;;;;;6.00;2.25;;;;;;;;;;5067359;28;20048;-61
2023/04/29 14:12:39;;;;;;;5.30;2.25;;;;;;;;;;5068183;28;20044;-61
2023/04/29 14:15:05;;;;;;;4.32;1.88;;;;;;;;;;5069374;28;20048;-62
2023/04/29 14:17:31;;;;;;;3.72;2.10;;;;;;;;;;5068079;28;20087;-62
2023/04/29 14:19:57;;;;;;;3.75;2.00;;;;;;;;;;5068726;28;20097;-61
2023/04/29 14:22:24;;;;;;;2.97;1.85;;;;;;;;;;5069052;28;20037;-62
2023/04/29 14:24:50;;;;;;;5.35;2.15;;;;;;;;;;5070615;28;20067;-61
2023/04/29 14:27:16;;;;;;;4.82;1.80;;;;;;;;;;5061275;28;20052;-62